createdAt,value
2022-10-04T00:02:20.840Z,8.84
2022-10-04T00:05:04.200Z,8.85
2022-10-04T00:07:38.126Z,8.92
2022-10-04T00:10:29.175Z,9.01
2022-10-04T00:12:59.850Z,9.07
2022-10-04T00:15:33.082Z,9.24
2022-10-04T00:18:12.539Z,9.20
2022-10-04T00:20:50.630Z,9.19
2022-10-04T00:23:24.260Z,9.19
2022-10-04T00:25:53.633Z,9.27
2022-10-04T00:28:21.031Z,9.34
2022-10-04T00:31:22.175Z,9.34
2022-10-04T00:33:54.372Z,9.38
2022-10-04T00:36:24.618Z,9.28
2022-10-04T00:39:04.629Z,9.17
2022-10-04T00:42:28.620Z,9.29
2022-10-04T00:45:14.469Z,9.45
2022-10-04T00:48:02.965Z,9.35
2022-10-04T00:50:38.471Z,9.07
2022-10-04T00:53:33.987Z,9.06
2022-10-04T00:56:07.302Z,8.91
2022-10-04T00:58:44.904Z,8.76
2022-10-04T01:01:12.478Z,8.71
2022-10-04T01:03:44.235Z,8.63
2022-10-04T01:06:13.608Z,8.59
2022-10-04T01:08:48.754Z,8.63
2022-10-04T01:11:24.955Z,8.79
2022-10-04T01:14:02.356Z,8.69
2022-10-04T01:16:33.799Z,8.66
2022-10-04T01:19:23.833Z,8.60
2022-10-04T01:22:14.642Z,8.65
2022-10-04T01:24:44.105Z,8.74
2022-10-04T01:27:31.888Z,8.66
2022-10-04T01:30:00.669Z,8.59
2022-10-04T01:32:27.972Z,8.58
2022-10-04T01:34:56.269Z,8.54
2022-10-04T01:37:23.895Z,8.67
2022-10-04T01:39:51.325Z,8.74
2022-10-04T01:42:26.882Z,8.76
2022-10-04T01:45:06.411Z,8.63
2022-10-04T01:47:41.151Z,8.62
2022-10-04T01:50:18.458Z,8.56
2022-10-04T01:52:53.402Z,8.57
2022-10-04T01:55:26.235Z,8.51
2022-10-04T01:58:01.173Z,8.56
2022-10-04T02:00:41.499Z,8.51
2022-10-04T02:03:20.479Z,8.42
2022-10-04T02:06:00.035Z,8.42
2022-10-04T02:08:31.230Z,8.37
2022-10-04T02:11:01.265Z,8.36
2022-10-04T02:13:35.429Z,8.42
2022-10-04T02:16:04.184Z,8.30
2022-10-04T02:18:34.354Z,8.33
2022-10-04T02:21:04.442Z,8.46
2022-10-04T02:23:33.270Z,8.35
2022-10-04T02:26:05.625Z,8.25
2022-10-04T02:28:34.552Z,8.27
2022-10-04T02:31:21.305Z,8.38
2022-10-04T02:33:51.429Z,8.32
2022-10-04T02:36:23.726Z,8.15
2022-10-04T02:39:00.879Z,8.29
2022-10-04T02:41:45.749Z,8.15
2022-10-04T02:44:36.459Z,8.12
2022-10-04T02:47:14.094Z,8.06
2022-10-04T02:49:45.590Z,8.18
2022-10-04T02:52:16.479Z,8.26
2022-10-04T02:55:06.576Z,8.17
2022-10-04T02:57:35.167Z,8.11
2022-10-04T03:00:17.484Z,8.15
2022-10-04T03:03:11.477Z,8.08
2022-10-04T03:05:40.613Z,8.03
2022-10-04T03:08:08.237Z,8.10
2022-10-04T03:10:36.024Z,8.05
2022-10-04T03:13:04.226Z,8.01
2022-10-04T03:15:32.704Z,8.01
2022-10-04T03:18:00.493Z,8.01
2022-10-04T03:20:28.243Z,7.95
2022-10-04T03:22:56.563Z,7.92
2022-10-04T03:25:35.517Z,8.00
2022-10-04T03:28:03.353Z,7.93
2022-10-04T03:30:32.393Z,8.06
2022-10-04T03:33:00.149Z,8.08
2022-10-04T03:35:37.543Z,8.08
2022-10-04T03:38:11.494Z,8.02
2022-10-04T03:40:45.296Z,8.08
2022-10-04T03:43:14.032Z,8.08
2022-10-04T03:45:42.321Z,8.13
2022-10-04T03:48:15.019Z,8.16
2022-10-04T03:50:49.981Z,8.14
2022-10-04T03:53:37.721Z,8.14
2022-10-04T03:56:11.300Z,8.14
2022-10-04T03:58:38.655Z,8.19
2022-10-04T04:01:13.875Z,8.14
2022-10-04T04:04:01.330Z,8.10
2022-10-04T04:06:40.391Z,8.13
2022-10-04T04:09:09.355Z,8.09
2022-10-04T04:11:37.125Z,8.11
2022-10-04T04:14:12.283Z,8.22
2022-10-04T04:16:40.155Z,8.19
2022-10-04T04:19:13.648Z,8.21
2022-10-04T04:21:41.914Z,8.06
2022-10-04T04:24:23.176Z,8.26
2022-10-04T04:26:56.277Z,8.33
2022-10-04T04:29:33.833Z,8.27
2022-10-04T04:32:05.462Z,8.23
2022-10-04T04:34:44.573Z,8.17
2022-10-04T04:37:11.963Z,8.12
2022-10-04T04:39:43.811Z,8.17
2022-10-04T04:42:14.637Z,8.12
2022-10-04T04:44:58.034Z,8.06
2022-10-04T04:47:52.637Z,8.10
2022-10-04T04:50:32.983Z,8.16
2022-10-04T04:53:07.859Z,8.15
2022-10-04T04:56:04.582Z,8.11
2022-10-04T04:58:43.606Z,8.00
2022-10-04T05:01:35.617Z,8.10
2022-10-04T05:04:04.765Z,8.08
2022-10-04T05:06:34.320Z,8.19
2022-10-04T05:09:02.294Z,8.09
2022-10-04T05:11:32.933Z,8.18
2022-10-04T05:14:12.796Z,8.20
2022-10-04T05:16:53.181Z,8.34
2022-10-04T05:19:28.912Z,8.36
2022-10-04T05:21:59.383Z,8.45
2022-10-04T05:24:33.496Z,8.52
2022-10-04T05:27:05.135Z,9.16
2022-10-04T05:29:35.218Z,10.32
2022-10-04T05:32:11.421Z,10.05
2022-10-04T05:34:41.855Z,10.52
2022-10-04T05:37:39.936Z,11.29
2022-10-04T05:40:30.407Z,11.83
2022-10-04T05:42:59.501Z,13.11
2022-10-04T05:45:29.773Z,14.97
2022-10-04T05:48:00.652Z,16.00
2022-10-04T05:50:34.068Z,17.47
2022-10-04T05:53:19.919Z,17.86
2022-10-04T05:56:16.544Z,18.76
2022-10-04T05:59:03.856Z,20.33
2022-10-04T06:01:54.817Z,21.39
2022-10-04T06:04:52.959Z,20.78
2022-10-04T06:07:43.050Z,21.31
2022-10-04T06:10:29.980Z,20.02
2022-10-04T06:13:15.693Z,20.48
2022-10-04T06:15:51.851Z,22.16
2022-10-04T06:18:40.600Z,23.18
2022-10-04T06:21:20.208Z,23.64
2022-10-04T06:24:10.627Z,24.26
2022-10-04T06:26:43.760Z,24.33
2022-10-04T06:29:20.655Z,24.91
2022-10-04T06:32:09.092Z,24.81
2022-10-04T06:34:59.160Z,25.10
2022-10-04T06:37:38.444Z,26.39
2022-10-04T06:40:44.549Z,24.02
2022-10-04T06:43:47.058Z,19.72
2022-10-04T06:46:28.176Z,18.58
2022-10-04T06:49:18.275Z,21.04
2022-10-04T06:52:06.303Z,23.85
2022-10-04T06:55:05.598Z,25.98
2022-10-04T06:58:09.580Z,25.09
2022-10-04T07:01:01.134Z,26.52
2022-10-04T07:04:13.084Z,27.25
2022-10-04T07:06:48.306Z,27.10
2022-10-04T07:09:27.683Z,25.42
2022-10-04T07:12:08.564Z,23.60
2022-10-04T07:14:45.285Z,22.80
2022-10-04T07:17:24.557Z,21.23
2022-10-04T07:19:54.772Z,18.92
2022-10-04T07:22:40.574Z,18.81
2022-10-04T07:25:20.774Z,19.53
2022-10-04T07:28:23.585Z,20.82
2022-10-04T07:31:06.394Z,18.44
2022-10-04T07:33:41.667Z,17.52
2022-10-04T07:36:12.791Z,18.74
2022-10-04T07:38:52.293Z,20.04
2022-10-04T07:41:30.104Z,19.92
2022-10-04T07:44:04.808Z,19.52
2022-10-04T07:46:53.888Z,18.08
2022-10-04T07:49:23.099Z,16.94
2022-10-04T07:52:18.497Z,18.63
2022-10-04T07:55:21.602Z,21.63
2022-10-04T07:58:09.609Z,23.51
2022-10-04T08:00:49.622Z,22.87
2022-10-04T08:03:38.309Z,23.63
2022-10-04T08:06:30.062Z,21.24
2022-10-04T08:09:19.192Z,22.44
2022-10-04T08:12:26.931Z,24.32
2022-10-04T08:15:09.640Z,24.68
2022-10-04T08:17:52.000Z,22.60
2022-10-04T08:20:50.144Z,22.76
2022-10-04T08:23:39.970Z,24.29
2022-10-04T08:26:22.384Z,21.89
2022-10-04T08:29:34.303Z,21.51
2022-10-04T08:32:38.347Z,19.73
2022-10-04T08:35:29.768Z,19.15
2022-10-04T08:38:24.383Z,18.60
2022-10-04T08:41:24.304Z,20.05
2022-10-04T08:44:06.825Z,23.43
2022-10-04T08:47:03.234Z,24.74
2022-10-04T08:49:38.449Z,24.78
2022-10-04T08:52:25.606Z,22.36
2022-10-04T08:55:35.070Z,22.19
2022-10-04T08:58:30.513Z,24.10
2022-10-04T09:01:16.137Z,23.98
2022-10-04T09:03:46.319Z,24.38
2022-10-04T09:06:32.530Z,24.15
2022-10-04T09:09:30.556Z,25.35
2022-10-04T09:12:08.891Z,23.83
2022-10-04T09:14:56.332Z,25.33
2022-10-04T09:18:02.823Z,25.40
2022-10-04T09:20:51.967Z,25.09
2022-10-04T09:23:31.417Z,25.21
2022-10-04T09:26:20.778Z,24.50
2022-10-04T09:29:17.002Z,24.59
2022-10-04T09:31:53.119Z,24.65
2022-10-04T09:34:38.897Z,24.38
2022-10-04T09:37:43.696Z,20.68
2022-10-04T09:40:29.739Z,20.13
2022-10-04T09:43:17.517Z,19.75
2022-10-04T09:46:03.589Z,19.88
2022-10-04T09:48:56.791Z,21.92
2022-10-04T09:51:45.859Z,23.79
2022-10-04T09:54:42.296Z,24.01
2022-10-04T09:57:31.827Z,23.38
2022-10-04T10:00:10.650Z,22.46
2022-10-04T10:02:46.648Z,22.68
2022-10-04T10:05:28.363Z,22.53
2022-10-04T10:08:13.919Z,22.30
2022-10-04T10:11:21.108Z,22.11
2022-10-04T10:14:19.176Z,21.75
2022-10-04T10:17:24.122Z,22.68
2022-10-04T10:20:16.851Z,23.50
2022-10-04T10:23:23.992Z,23.78
2022-10-04T10:26:28.281Z,22.62
2022-10-04T10:29:40.626Z,21.20
2022-10-04T10:32:36.134Z,20.59
2022-10-04T10:35:24.988Z,21.37
2022-10-04T10:38:07.563Z,21.07
2022-10-04T10:40:53.202Z,20.67
2022-10-04T10:43:52.289Z,20.96
2022-10-04T10:46:38.364Z,21.72
2022-10-04T10:49:08.709Z,21.97
2022-10-04T10:52:25.550Z,21.50
2022-10-04T10:54:55.859Z,21.43
2022-10-04T10:57:41.570Z,22.12
2022-10-04T11:00:26.258Z,21.64
2022-10-04T11:03:14.626Z,22.10
2022-10-04T11:05:45.901Z,19.68
2022-10-04T11:08:19.957Z,18.74
2022-10-04T11:11:08.250Z,17.78
2022-10-04T11:14:11.921Z,17.55
2022-10-04T11:16:54.488Z,17.27
2022-10-04T11:20:05.538Z,16.97
2022-10-04T11:23:02.102Z,16.93
2022-10-04T11:25:35.005Z,16.51
2022-10-04T11:28:22.037Z,16.22
2022-10-04T11:30:58.453Z,16.01
2022-10-04T11:33:43.834Z,15.66
2022-10-04T11:36:43.706Z,15.49
2022-10-04T11:39:49.385Z,15.23
2022-10-04T11:42:26.281Z,15.29
2022-10-04T11:45:34.076Z,15.54
2022-10-04T11:48:38.490Z,15.89
2022-10-04T11:51:18.875Z,16.00
2022-10-04T11:54:13.253Z,15.65
2022-10-04T11:57:15.994Z,15.40
2022-10-04T11:59:58.954Z,15.64
2022-10-04T12:02:29.610Z,15.35
2022-10-04T12:05:24.940Z,15.12
2022-10-04T12:08:18.362Z,15.00
2022-10-04T12:11:20.485Z,15.22
2022-10-04T12:14:09.092Z,15.13
2022-10-04T12:16:36.302Z,15.23
2022-10-04T12:19:31.318Z,15.11
2022-10-04T12:22:31.155Z,15.03
2022-10-04T12:25:09.300Z,14.99
2022-10-04T12:28:00.625Z,15.04
2022-10-04T12:30:46.816Z,15.15
2022-10-04T12:33:29.692Z,15.15
2022-10-04T12:36:13.632Z,15.42
2022-10-04T12:38:59.212Z,15.40
2022-10-04T12:41:42.264Z,15.42
2022-10-04T12:44:34.662Z,15.35
2022-10-04T12:47:23.850Z,15.29
2022-10-04T12:50:00.523Z,15.11
2022-10-04T12:52:34.220Z,15.17
2022-10-04T12:55:44.897Z,14.96
2022-10-04T12:58:53.485Z,14.85
2022-10-04T13:01:42.103Z,14.79
2022-10-04T13:04:26.000Z,14.79
2022-10-04T13:07:33.729Z,14.78
2022-10-04T13:10:24.760Z,14.78
2022-10-04T13:13:05.245Z,14.96
2022-10-04T13:19:24.215Z,14.90
2022-10-04T13:21:57.950Z,14.72
2022-10-04T13:24:55.210Z,14.84
2022-10-04T13:27:41.542Z,14.53
2022-10-04T13:30:33.838Z,14.34
2022-10-04T13:33:10.400Z,14.27
2022-10-04T13:36:12.162Z,14.57
2022-10-04T13:38:54.851Z,14.40
2022-10-04T13:41:52.188Z,14.50
2022-10-04T13:44:46.853Z,14.30
2022-10-04T13:47:32.190Z,14.48
2022-10-04T13:50:17.598Z,14.16
2022-10-04T13:53:23.504Z,14.07
2022-10-04T13:56:38.486Z,13.80
2022-10-04T13:59:17.505Z,13.71
2022-10-04T14:02:12.743Z,13.82
2022-10-04T14:04:57.530Z,13.65
2022-10-04T14:07:46.202Z,13.58
2022-10-04T14:10:31.861Z,13.76
2022-10-04T14:12:59.508Z,13.67
2022-10-04T14:15:51.251Z,13.68
2022-10-04T14:18:31.929Z,14.07
2022-10-04T14:21:15.352Z,13.91
2022-10-04T14:24:25.299Z,13.78
2022-10-04T14:27:34.056Z,13.56
2022-10-04T14:30:15.022Z,13.46
2022-10-04T14:33:00.974Z,13.50
2022-10-04T14:35:48.743Z,13.71
2022-10-04T14:38:29.276Z,13.63
2022-10-04T14:41:08.871Z,13.60
2022-10-04T14:44:00.708Z,13.55
2022-10-04T14:46:33.887Z,13.60
2022-10-04T14:49:14.243Z,13.71
2022-10-04T14:51:54.045Z,13.48
2022-10-04T14:54:29.098Z,13.31
2022-10-04T14:57:09.252Z,13.36
2022-10-04T15:00:08.884Z,13.16
2022-10-04T15:03:03.025Z,13.02
2022-10-04T15:06:06.643Z,12.82
2022-10-04T15:08:52.152Z,12.78
2022-10-04T15:11:40.353Z,12.69
2022-10-04T15:14:36.911Z,12.70
2022-10-04T15:17:11.339Z,12.59
2022-10-04T15:20:20.313Z,12.42
2022-10-04T15:23:15.005Z,12.56
2022-10-04T15:25:48.783Z,12.46
2022-10-04T15:28:54.215Z,12.42
2022-10-04T15:31:41.108Z,12.29
2022-10-04T15:34:29.705Z,12.26
2022-10-04T15:37:15.389Z,12.25
2022-10-04T15:40:03.636Z,12.21
2022-10-04T15:42:35.013Z,12.14
2022-10-04T15:45:16.014Z,12.10
2022-10-04T15:48:05.235Z,11.91
2022-10-04T15:50:57.272Z,11.81
2022-10-04T15:54:01.905Z,11.86
2022-10-04T15:56:41.144Z,11.84
2022-10-04T15:59:36.289Z,11.65
2022-10-04T16:02:24.931Z,11.45
2022-10-04T16:05:13.105Z,11.39
2022-10-04T16:08:05.462Z,11.56
2022-10-04T16:10:38.694Z,11.45
2022-10-04T16:13:43.415Z,11.19
2022-10-04T16:16:45.264Z,11.04
2022-10-04T16:19:46.094Z,10.83
2022-10-04T16:22:28.237Z,10.67
2022-10-04T16:24:58.282Z,10.55
2022-10-04T16:27:56.051Z,10.55
2022-10-04T16:30:28.889Z,10.74
2022-10-04T16:32:59.403Z,10.58
2022-10-04T16:35:39.908Z,10.45
2022-10-04T16:38:13.365Z,10.69
2022-10-04T16:40:52.703Z,10.74
2022-10-04T16:43:20.532Z,10.55
2022-10-04T16:46:13.147Z,10.47
2022-10-04T16:48:49.902Z,10.57
2022-10-04T16:51:17.023Z,10.41
2022-10-04T16:54:05.827Z,10.37
2022-10-04T16:57:00.767Z,10.33
2022-10-04T16:59:37.273Z,10.33
2022-10-04T17:02:23.121Z,10.22
2022-10-04T17:05:05.345Z,10.18
2022-10-04T17:07:52.547Z,10.10
2022-10-04T17:10:35.804Z,10.05
2022-10-04T17:13:43.310Z,9.93
2022-10-04T17:16:20.958Z,9.85
2022-10-04T17:19:03.423Z,9.86
2022-10-04T17:21:39.843Z,9.83
2022-10-04T17:24:37.949Z,9.62
2022-10-04T17:27:27.368Z,9.52
2022-10-04T17:30:03.521Z,9.72
2022-10-04T17:32:51.216Z,9.81
2022-10-04T17:35:37.252Z,9.83
2022-10-04T17:38:28.907Z,9.91
2022-10-04T17:41:06.637Z,9.74
2022-10-04T17:43:55.834Z,10.07
2022-10-04T17:46:28.228Z,10.07
2022-10-04T17:49:44.111Z,9.97
2022-10-04T17:52:52.911Z,10.02
2022-10-04T17:55:31.322Z,10.04
2022-10-04T17:58:48.206Z,10.38
2022-10-04T18:02:05.649Z,9.92
2022-10-04T18:04:49.905Z,9.87
2022-10-04T18:07:41.158Z,10.03
2022-10-04T18:10:44.346Z,10.07
2022-10-04T18:13:26.609Z,9.86
2022-10-04T18:16:01.985Z,9.78
2022-10-04T18:18:39.332Z,9.55
2022-10-04T18:21:22.744Z,9.58
2022-10-04T18:24:00.792Z,9.56
2022-10-04T18:26:33.734Z,9.47
2022-10-04T18:29:03.566Z,9.56
2022-10-04T18:31:40.395Z,9.53
2022-10-04T18:34:12.174Z,9.65
2022-10-04T18:37:21.454Z,9.84
2022-10-04T18:39:55.582Z,10.00
2022-10-04T18:42:37.926Z,10.13
2022-10-04T18:45:26.711Z,10.06
2022-10-04T18:48:00.434Z,10.23
2022-10-04T18:50:41.532Z,10.29
2022-10-04T18:53:14.290Z,10.26
2022-10-04T18:56:04.120Z,10.16
2022-10-04T18:59:11.990Z,10.04
2022-10-04T19:02:08.035Z,9.94
2022-10-04T19:04:49.263Z,9.97
2022-10-04T19:07:35.842Z,9.86
2022-10-04T19:10:34.243Z,9.81
2022-10-04T19:13:26.135Z,10.05
2022-10-04T19:16:23.875Z,10.05
2022-10-04T19:19:15.265Z,10.24
2022-10-04T19:22:04.404Z,10.39
2022-10-04T19:25:06.394Z,10.48
2022-10-04T19:27:36.974Z,10.43
2022-10-04T19:30:15.476Z,10.45
2022-10-04T19:32:57.658Z,10.49
2022-10-04T19:35:46.190Z,10.59
2022-10-04T19:38:31.642Z,10.52
2022-10-04T19:41:23.134Z,10.29
2022-10-04T19:43:58.809Z,10.37
2022-10-04T19:46:42.227Z,10.43
2022-10-04T19:49:21.822Z,10.41
2022-10-04T19:51:55.190Z,10.37
2022-10-04T19:54:33.585Z,10.14
2022-10-04T19:57:05.542Z,10.24
2022-10-04T19:59:40.824Z,10.40
2022-10-04T20:02:12.631Z,10.27
2022-10-04T20:04:42.221Z,10.39
2022-10-04T20:07:23.867Z,10.35
2022-10-04T20:10:03.891Z,10.38
2022-10-04T20:12:37.535Z,10.27
2022-10-04T20:15:17.929Z,10.37
2022-10-04T20:17:47.636Z,10.18
2022-10-04T20:20:57.086Z,10.28
2022-10-04T20:23:47.972Z,10.50
2022-10-04T20:26:55.138Z,10.51
2022-10-04T20:29:38.302Z,10.66
2022-10-04T20:32:08.379Z,10.62
2022-10-04T20:34:38.486Z,10.64
2022-10-04T20:37:10.051Z,10.56
2022-10-04T20:39:46.216Z,10.32
2022-10-04T20:42:37.231Z,10.35
2022-10-04T20:45:10.726Z,10.33
2022-10-04T20:47:54.286Z,10.37
2022-10-04T20:50:35.787Z,10.20
2022-10-04T20:53:06.893Z,10.02
2022-10-04T20:55:39.070Z,9.96
2022-10-04T20:58:31.637Z,10.20
2022-10-04T21:01:11.069Z,10.41
2022-10-04T21:03:38.317Z,10.25
2022-10-04T21:06:12.159Z,10.07
2022-10-04T21:08:41.030Z,9.82
2022-10-04T21:11:10.082Z,9.76
2022-10-04T21:13:49.110Z,10.00
2022-10-04T21:16:45.999Z,9.93
2022-10-04T21:19:44.326Z,10.01
2022-10-04T21:22:17.687Z,10.04
2022-10-04T21:24:50.706Z,9.87
2022-10-04T21:27:32.608Z,9.74
2022-10-04T21:30:01.587Z,9.76
2022-10-04T21:32:34.490Z,9.68
2022-10-04T21:35:03.655Z,9.76
2022-10-04T21:37:31.727Z,9.96
2022-10-04T21:39:58.944Z,9.87
2022-10-04T21:42:26.103Z,9.98
2022-10-04T21:44:53.708Z,10.05
2022-10-04T21:47:23.707Z,9.81
2022-10-04T21:49:52.156Z,9.89
2022-10-04T21:52:19.523Z,9.91
2022-10-04T21:54:46.892Z,9.91
2022-10-04T21:57:14.120Z,9.95
2022-10-04T21:59:41.574Z,9.88
2022-10-04T22:02:09.105Z,10.07
2022-10-04T22:04:38.191Z,10.24
2022-10-04T22:07:05.683Z,10.28
2022-10-04T22:09:33.936Z,10.27
2022-10-04T22:12:01.155Z,10.08
2022-10-04T22:14:28.521Z,10.10
2022-10-04T22:16:55.745Z,10.24
2022-10-04T22:19:23.026Z,10.14
2022-10-04T22:21:50.557Z,9.94
2022-10-04T22:24:20.300Z,9.93
2022-10-04T22:26:48.051Z,9.95
2022-10-04T22:29:17.955Z,10.00
2022-10-04T22:31:55.118Z,10.19
2022-10-04T22:34:23.069Z,10.13
2022-10-04T22:36:53.072Z,10.24
2022-10-04T22:39:21.108Z,10.20
2022-10-04T22:41:55.425Z,10.26
2022-10-04T22:44:27.687Z,10.31
2022-10-04T22:47:00.087Z,10.13
2022-10-04T22:49:30.838Z,9.93
2022-10-04T22:52:00.630Z,10.07
2022-10-04T22:54:33.829Z,10.05
2022-10-04T22:57:01.245Z,10.15
2022-10-04T22:59:38.689Z,10.31
2022-10-04T23:02:13.763Z,10.11
2022-10-04T23:04:44.028Z,10.29
2022-10-04T23:07:11.454Z,10.48
2022-10-04T23:09:38.611Z,10.39
2022-10-04T23:12:08.722Z,10.43
2022-10-04T23:14:38.026Z,10.30
2022-10-04T23:17:44.519Z,10.14
2022-10-04T23:20:17.912Z,10.08
2022-10-04T23:22:48.083Z,10.04
2022-10-04T23:25:28.157Z,10.17
2022-10-04T23:28:01.149Z,10.33
2022-10-04T23:30:28.827Z,10.39
2022-10-04T23:33:00.128Z,10.09
2022-10-04T23:35:32.907Z,10.11
2022-10-04T23:38:03.703Z,10.34
2022-10-04T23:40:30.973Z,10.29
2022-10-04T23:43:00.572Z,10.42
2022-10-04T23:45:28.043Z,10.52
2022-10-04T23:47:57.295Z,10.52
2022-10-04T23:50:34.331Z,10.68
2022-10-04T23:53:06.385Z,10.64
2022-10-04T23:55:37.772Z,10.59
2022-10-04T23:58:17.587Z,10.62
